Time;durP1;ratioP1;P1;durP2;ratioP2;P2;SDS_P1;SDS_P2;PMS_P1;PMS_P2;Temp;Humidity;BMP_temperature;BMP_pressure;BME280_temperature;BME280_humidity;BME280_pressure;Samples;Min_cycle;Max_cycle;Signal;HPM_P1;HPM_P2
2021/07/05 00:01:08;;;;;;;3.10;1.88;;;;;;;18.76;68.66;96820.88;5056980;28;20407;-77
2021/07/05 00:03:34;;;;;;;1.95;1.85;;;;;;;18.77;68.36;96811.88;5039951;28;20027;-77
2021/07/05 00:05:59;;;;;;;1.73;1.60;;;;;;;18.72;68.45;96804.88;5041584;28;20055;-77
2021/07/05 00:08:25;;;;;;;2.13;1.90;;;;;;;18.78;68.81;96813.47;5039034;28;20032;-77
2021/07/05 00:10:53;;;;;;;1.95;1.85;;;;;;;18.85;68.47;96821.72;5058284;28;20487;-77
2021/07/05 00:13:18;;;;;;;2.38;1.80;;;;;;;18.82;68.28;96818.91;5057676;28;20032;-77
2021/07/05 00:15:44;;;;;;;2.53;1.77;;;;;;;18.84;68.23;96820.16;5057640;28;20116;-78
2021/07/05 00:18:10;;;;;;;2.00;1.85;;;;;;;18.85;68.50;96808.53;5074371;28;20487;-77
2021/07/05 00:20:38;;;;;;;2.92;1.85;;;;;;;18.88;68.34;96817.69;5075846;28;20040;-77
2021/07/05 00:23:08;;;;;;;2.67;1.42;;;;;;;18.97;67.99;96820.34;5057880;28;20024;-77
2021/07/05 00:25:33;;;;;;;2.03;1.83;;;;;;;18.99;68.06;96810.28;5073473;28;20034;-77
2021/07/05 00:27:59;;;;;;;2.60;1.90;;;;;;;18.99;68.04;96807.63;5057032;28;20042;-77
2021/07/05 00:30:26;;;;;;;3.13;2.15;;;;;;;19.01;67.96;96805.47;5058034;28;20048;-77
2021/07/05 00:32:54;;;;;;;2.58;1.70;;;;;;;19.03;68.06;96805.94;5057657;28;20513;-77
2021/07/05 00:35:21;;;;;;;2.15;1.80;;;;;;;19.04;68.38;96810.13;5057395;28;20107;-77
2021/07/05 00:37:47;;;;;;;2.60;2.00;;;;;;;19.12;68.29;96806.72;5057774;28;20146;-77
2021/07/05 00:40:14;;;;;;;2.10;1.88;;;;;;;19.10;68.29;96795.69;5056739;28;20480;-77
2021/07/05 00:42:40;;;;;;;2.58;1.65;;;;;;;19.19;68.32;96795.69;5057262;28;20036;-77
2021/07/05 00:45:07;;;;;;;1.88;1.65;;;;;;;19.23;67.74;96797.41;5053777;28;20041;-77
2021/07/05 00:47:33;;;;;;;2.30;1.75;;;;;;;19.27;67.95;96798.34;5053875;28;20495;-77
2021/07/05 00:49:59;;;;;;;2.40;1.65;;;;;;;19.34;67.84;96795.25;5069869;28;20029;-77
2021/07/05 00:52:25;;;;;;;2.75;1.95;;;;;;;19.38;67.89;96793.56;5036455;28;20551;-77
2021/07/05 00:54:50;;;;;;;2.53;1.90;;;;;;;19.36;67.90;96792.28;5053215;28;20036;-77
2021/07/05 00:57:24;;;;;;;2.30;1.80;;;;;;;19.38;67.98;96784.84;5070122;28;20087;-77
2021/07/05 00:59:51;;;;;;;1.67;1.58;;;;;;;19.38;67.72;96782.19;5052037;28;20066;-77
2021/07/05 01:02:18;;;;;;;3.88;2.15;;;;;;;19.40;67.42;96783.44;5037862;28;20052;-77
2021/07/05 01:04:44;;;;;;;2.30;2.00;;;;;;;19.40;67.89;96787.97;5038415;28;20047;-77
2021/07/05 01:07:09;;;;;;;2.60;2.10;;;;;;;19.39;67.67;96787.16;5020551;28;20028;-77
2021/07/05 01:09:34;;;;;;;4.50;2.67;;;;;;;19.40;68.00;96795.88;5072559;28;20530;-77
2021/07/05 01:12:00;;;;;;;2.70;2.17;;;;;;;19.39;68.15;96794.31;5073203;28;20050;-77
2021/07/05 01:14:25;;;;;;;2.80;1.95;;;;;;;19.37;68.08;96781.44;5040621;28;20066;-77
2021/07/05 01:16:50;;;;;;;1.88;1.60;;;;;;;19.33;67.85;96783.16;5057307;28;20058;-77
2021/07/05 01:19:16;;;;;;;2.78;1.92;;;;;;;19.31;67.94;96780.00;5043200;28;20032;-77
2021/07/05 01:21:41;;;;;;;2.72;1.92;;;;;;;19.30;68.26;96780.34;5038980;28;20121;-77
2021/07/05 01:24:06;;;;;;;2.17;1.75;;;;;;;19.30;68.06;96780.34;5056790;28;20444;-77
2021/07/05 01:26:32;;;;;;;3.50;1.98;;;;;;;19.32;68.29;96770.25;5056857;28;20497;-77
2021/07/05 01:28:57;;;;;;;4.10;1.83;;;;;;;19.36;68.25;96781.72;5055649;28;20037;-77
2021/07/05 01:31:23;;;;;;;1.85;1.75;;;;;;;19.34;68.13;96776.75;5056375;28;20037;-77
2021/07/05 01:33:51;;;;;;;3.35;2.40;;;;;;;19.34;68.33;96765.44;5055576;28;20021;-77
2021/07/05 01:36:16;;;;;;;2.30;2.00;;;;;;;19.36;67.99;96750.06;5038254;28;20051;-77
2021/07/05 01:38:42;;;;;;;2.67;1.90;;;;;;;19.38;67.82;96745.22;5039053;28;20032;-77
2021/07/05 01:41:08;;;;;;;2.97;2.20;;;;;;;19.35;67.83;96740.59;5073223;28;20028;-77
2021/07/05 01:43:34;;;;;;;2.25;1.92;;;;;;;19.32;67.72;96739.34;5072877;28;20037;-77
2021/07/05 01:46:00;;;;;;;2.33;2.08;;;;;;;19.34;67.93;96749.59;5056516;28;20438;-77
2021/07/05 01:48:26;;;;;;;2.58;1.63;;;;;;;19.27;67.90;96763.25;5023124;28;20060;-77
2021/07/05 01:50:53;;;;;;;2.30;2.05;;;;;;;19.25;67.99;96783.91;5039256;28;20430;-77
2021/07/05 01:53:19;;;;;;;3.83;1.85;;;;;;;19.21;68.10;96775.03;5054087;28;20083;-77
2021/07/05 01:55:45;;;;;;;1.77;1.63;;;;;;;19.19;68.20;96767.47;5052828;28;20032;-77
2021/07/05 01:58:11;;;;;;;3.13;2.00;;;;;;;19.21;68.17;96770.56;5021192;28;20309;-77
2021/07/05 02:00:43;;;;;;;2.30;1.83;;;;;;;19.16;67.76;96765.44;5056001;28;20031;-77
2021/07/05 02:03:09;;;;;;;3.13;2.00;;;;;;;19.20;68.23;96755.81;5073379;28;20756;-77
2021/07/05 02:05:35;;;;;;;3.92;2.22;;;;;;;19.15;67.78;96765.75;5021014;28;20032;-78
2021/07/05 02:08:01;;;;;;;2.20;1.83;;;;;;;19.13;67.77;96771.31;5018230;28;20182;-77
2021/07/05 02:10:29;;;;;;;3.35;2.13;;;;;;;19.08;68.16;96771.47;5039276;28;20028;-77
2021/07/05 02:12:56;;;;;;;3.38;1.92;;;;;;;19.09;68.07;96768.53;5038743;28;20035;-77
2021/07/05 02:15:22;;;;;;;2.33;1.90;;;;;;;19.15;68.04;96766.50;5055817;28;20036;-77
2021/07/05 02:17:48;;;;;;;2.28;1.88;;;;;;;19.19;68.17;96759.53;5035539;28;20655;-77
2021/07/05 02:20:20;;;;;;;2.92;1.80;;;;;;;19.06;68.18;96760.47;5036937;28;20032;-77
2021/07/05 02:22:50;;;;;;;2.45;2.25;;;;;;;19.28;67.75;96751.63;5055388;28;20072;-77
2021/07/05 02:25:16;;;;;;;3.65;2.47;;;;;;;19.28;68.24;96749.75;5068919;28;21539;-77
2021/07/05 02:27:42;;;;;;;2.83;2.03;;;;;;;19.36;67.80;96752.69;5023802;28;20021;-77
2021/07/05 02:30:14;;;;;;;2.00;1.80;;;;;;;19.26;68.21;96751.94;5058666;28;20047;-77
2021/07/05 02:32:43;;;;;;;2.35;2.10;;;;;;;19.33;68.26;96737.47;5058830;28;20517;-77
2021/07/05 02:35:11;;;;;;;2.45;2.10;;;;;;;19.28;68.30;96736.56;5022075;28;20035;-77
2021/07/05 02:37:37;;;;;;;3.20;1.90;;;;;;;19.41;68.11;96732.19;5053820;28;20039;-78
2021/07/05 02:40:06;;;;;;;1.90;1.70;;;;;;;19.41;68.16;96739.34;5052831;28;20032;-77
2021/07/05 02:42:32;;;;;;;3.83;1.80;;;;;;;19.53;68.05;96730.78;5037706;28;20043;-77
2021/07/05 02:44:57;;;;;;;3.15;1.70;;;;;;;19.45;68.13;96727.06;5037553;28;20063;-77
2021/07/05 02:47:22;;;;;;;3.83;2.00;;;;;;;19.47;68.39;96735.47;5054554;28;20511;-78
2021/07/05 02:49:50;;;;;;;3.00;2.47;;;;;;;19.35;68.12;96730.03;5071958;28;20377;-77
2021/07/05 02:52:15;;;;;;;2.00;1.80;;;;;;;19.55;68.01;96732.03;5070477;28;20036;-77
2021/07/05 02:54:41;;;;;;;3.42;1.98;;;;;;;19.53;68.08;96736.06;5054263;28;20047;-77
2021/07/05 02:57:06;;;;;;;2.25;1.60;;;;;;;19.49;67.98;96735.16;5054282;28;20040;-77
2021/07/05 02:59:32;;;;;;;1.92;1.83;;;;;;;19.54;67.96;96735.00;5053877;28;20032;-77
2021/07/05 03:01:57;;;;;;;2.72;1.92;;;;;;;19.53;67.64;96731.56;5053824;28;20024;-77
2021/07/05 03:04:22;;;;;;;2.50;1.77;;;;;;;19.42;67.93;96720.53;5037007;28;20066;-77
2021/07/05 03:06:48;;;;;;;3.00;2.00;;;;;;;19.45;67.97;96713.88;5070100;28;20083;-77
2021/07/05 03:09:13;;;;;;;2.20;2.05;;;;;;;19.50;68.13;96716.34;5070265;28;20498;-77
2021/07/05 03:11:39;;;;;;;2.30;1.98;;;;;;;19.39;68.33;96715.88;5054219;28;20039;-78
2021/07/05 03:14:06;;;;;;;2.88;1.92;;;;;;;19.45;68.35;96716.53;5037574;28;20028;-77
2021/07/05 03:16:32;;;;;;;2.05;1.73;;;;;;;19.42;68.23;96720.53;5071655;28;20127;-77
2021/07/05 03:18:58;;;;;;;3.15;2.15;;;;;;;19.46;68.20;96726.75;5067837;28;20056;-77
2021/07/05 03:21:23;;;;;;;3.97;2.05;;;;;;;19.38;68.66;96726.75;5054794;28;20068;-77
2021/07/05 03:23:48;;;;;;;3.28;2.10;;;;;;;19.43;68.32;96742.44;5070921;28;20037;-77
2021/07/05 03:26:14;;;;;;;2.53;2.22;;;;;;;19.38;68.47;96735.47;5054446;28;20028;-77
2021/07/05 03:28:39;;;;;;;2.20;1.95;;;;;;;19.47;68.25;96735.47;5067032;28;20649;-77
2021/07/05 03:31:05;;;;;;;3.67;2.28;;;;;;;19.52;67.98;96742.41;5051117;28;20029;-77
2021/07/05 03:33:30;;;;;;;2.60;2.15;;;;;;;19.55;67.81;96731.25;5054328;28;20685;-77
2021/07/05 03:35:55;;;;;;;3.95;2.08;;;;;;;19.54;68.39;96738.41;5021250;28;20036;-78
2021/07/05 03:38:21;;;;;;;3.63;2.10;;;;;;;19.50;68.06;96737.47;5053833;28;20155;-77
2021/07/05 03:40:47;;;;;;;3.10;2.22;;;;;;;19.50;68.04;96736.69;5054228;28;20033;-77
2021/07/05 03:43:13;;;;;;;2.40;2.20;;;;;;;19.43;68.30;96747.72;5036746;28;20044;-77
2021/07/05 03:45:39;;;;;;;4.80;2.22;;;;;;;19.45;68.50;96753.47;5037566;28;20047;-77
2021/07/05 03:48:06;;;;;;;3.97;2.58;;;;;;;19.39;68.58;96744.16;5020064;28;20510;-77
2021/07/05 03:50:32;;;;;;;2.38;2.13;;;;;;;19.42;68.35;96743.53;5053456;28;20036;-77
2021/07/05 03:52:58;;;;;;;3.75;2.83;;;;;;;19.44;68.24;96744.00;5055548;28;20756;-77
2021/07/05 03:55:25;;;;;;;2.70;2.45;;;;;;;19.36;68.77;96744.78;5073677;28;20036;-77
2021/07/05 03:57:52;;;;;;;3.22;2.92;;;;;;;19.31;68.67;96743.06;5023991;28;20078;-77
2021/07/05 04:00:21;;;;;;;3.95;2.70;;;;;;;19.24;69.21;96750.69;5023919;28;20032;-77
2021/07/05 04:02:47;;;;;;;5.50;3.05;;;;;;;19.14;69.42;96754.41;5039349;28;20037;-77
2021/07/05 04:05:15;;;;;;;5.45;3.30;;;;;;;19.28;68.84;96762.19;5037242;28;20036;-77
2021/07/05 04:07:42;;;;;;;3.60;3.30;;;;;;;19.19;69.23;96767.47;5039725;28;20028;-77
2021/07/05 04:10:09;;;;;;;4.55;3.83;;;;;;;19.23;69.06;96775.53;5040323;28;20055;-77
2021/07/05 04:12:37;;;;;;;3.95;2.92;;;;;;;19.36;68.53;96771.94;5073911;28;20628;-77
2021/07/05 04:15:04;;;;;;;6.45;3.17;;;;;;;19.31;68.69;96771.31;5040855;28;20033;-77
2021/07/05 04:17:30;;;;;;;3.50;2.80;;;;;;;19.36;68.82;96765.91;5057149;28;20036;-77
2021/07/05 04:19:55;;;;;;;3.92;3.50;;;;;;;19.39;68.67;96767.91;5056777;28;20694;-77
2021/07/05 04:22:22;;;;;;;4.22;3.22;;;;;;;19.43;68.44;96763.56;5057238;28;20033;-77
2021/07/05 04:24:50;;;;;;;3.65;3.35;;;;;;;19.26;68.90;96751.94;5056251;28;20032;-77
2021/07/05 04:27:16;;;;;;;7.45;3.65;;;;;;;19.40;68.66;96751.78;5054814;28;20047;-77
2021/07/05 04:29:42;;;;;;;4.15;3.08;;;;;;;19.41;68.52;96752.53;5072842;28;20036;-77
2021/07/05 04:32:08;;;;;;;6.30;3.70;;;;;;;19.44;68.42;96751.91;5039078;28;20032;-77
2021/07/05 04:34:34;;;;;;;4.78;3.50;;;;;;;19.33;68.61;96750.66;5055616;28;20044;-77
2021/07/05 04:37:00;;;;;;;3.70;3.30;;;;;;;19.36;68.48;96752.69;5073343;28;20044;-77
2021/07/05 04:39:25;;;;;;;6.63;3.80;;;;;;;19.40;68.41;96758.91;5038829;28;20714;-77
2021/07/05 04:41:51;;;;;;;3.50;3.20;;;;;;;19.36;68.51;96760.63;5072060;28;20039;-76
2021/07/05 04:44:16;;;;;;;4.63;3.15;;;;;;;19.30;68.48;96775.84;5072197;28;20056;-77
2021/07/05 04:46:47;;;;;;;5.22;3.95;;;;;;;19.28;68.43;96770.88;5056155;28;20100;-77
2021/07/05 04:49:15;;;;;;;4.70;3.55;;;;;;;19.28;68.43;96781.44;5039216;28;20046;-77
2021/07/05 04:51:41;;;;;;;4.13;3.03;;;;;;;19.37;68.15;96775.38;5039256;28;20075;-77
2021/07/05 04:54:06;;;;;;;6.78;3.53;;;;;;;19.33;68.17;96775.22;5055549;28;20051;-77
2021/07/05 04:56:33;;;;;;;4.20;3.75;;;;;;;19.34;68.14;96778.63;5055778;28;20678;-77
2021/07/05 04:58:59;;;;;;;4.40;3.45;;;;;;;19.36;68.11;96773.81;5030682;28;20614;-77
2021/07/05 05:01:24;;;;;;;4.80;3.03;;;;;;;19.33;68.14;96777.88;5068772;28;20059;-77
2021/07/05 05:03:49;;;;;;;4.30;3.92;;;;;;;19.38;68.13;96777.72;5050896;28;20446;-78
2021/07/05 05:06:15;;;;;;;4.90;3.83;;;;;;;19.40;68.04;96772.88;5054703;28;20036;-77
2021/07/05 05:08:40;;;;;;;3.63;3.33;;;;;;;19.31;68.13;96772.09;5054444;28;20020;-77
2021/07/05 05:11:05;;;;;;;7.65;3.83;;;;;;;19.38;67.75;96779.56;5054509;28;20094;-77
2021/07/05 05:13:31;;;;;;;6.32;3.58;;;;;;;19.36;67.75;96771.16;5054070;28;20032;-77
2021/07/05 05:15:56;;;;;;;5.32;3.90;;;;;;;19.30;67.92;96769.78;5054329;28;20037;-77
2021/07/05 05:18:22;;;;;;;7.18;3.72;;;;;;;19.22;68.24;96761.53;5053571;28;20096;-77
2021/07/05 05:20:47;;;;;;;4.53;4.10;;;;;;;19.21;68.46;96765.28;5070996;28;20548;-77
2021/07/05 05:23:13;;;;;;;4.63;3.92;;;;;;;19.25;68.31;96760.91;5038287;28;20017;-77
2021/07/05 05:25:38;;;;;;;5.10;4.60;;;;;;;19.24;68.25;96762.03;5053510;28;20062;-77
2021/07/05 05:28:04;;;;;;;5.32;3.72;;;;;;;19.28;68.34;96757.66;5053569;28;20107;-77
2021/07/05 05:30:30;;;;;;;4.15;3.75;;;;;;;19.31;67.80;96766.81;5069816;28;20029;-77
2021/07/05 05:32:55;;;;;;;4.60;4.07;;;;;;;19.34;68.36;96773.34;5053962;28;20061;-77
2021/07/05 05:35:22;;;;;;;3.90;3.60;;;;;;;19.33;67.63;96774.44;5054846;28;20036;-77
2021/07/05 05:37:52;;;;;;;5.72;4.15;;;;;;;19.30;67.95;96777.72;5054974;28;20086;-77
2021/07/05 05:40:18;;;;;;;3.75;3.45;;;;;;;19.31;67.90;96774.72;5055659;28;20449;-77
2021/07/05 05:42:45;;;;;;;6.82;3.55;;;;;;;19.36;67.69;96789.66;5071665;28;20111;-77
2021/07/05 05:45:12;;;;;;;4.18;3.33;;;;;;;19.38;67.62;96792.75;5055243;28;20044;-77
2021/07/05 05:47:38;;;;;;;3.70;3.40;;;;;;;19.37;67.68;96793.84;5038421;28;20034;-78
2021/07/05 05:50:05;;;;;;;4.60;4.03;;;;;;;19.40;67.43;96793.25;5038608;28;20467;-77
2021/07/05 05:52:30;;;;;;;3.72;3.42;;;;;;;19.36;67.50;96795.69;5054822;28;20029;-77
2021/07/05 05:54:56;;;;;;;4.00;3.55;;;;;;;19.30;67.55;96790.91;5035594;28;20028;-77
2021/07/05 05:57:25;;;;;;;6.65;3.75;;;;;;;19.34;67.46;96789.97;5054543;28;20126;-77
2021/07/05 05:59:53;;;;;;;3.83;3.28;;;;;;;19.25;67.79;96783.91;5054705;28;20063;-77
2021/07/05 06:02:19;;;;;;;5.57;3.75;;;;;;;19.22;67.82;96780.00;5038205;28;20024;-78
2021/07/05 06:04:44;;;;;;;3.55;3.22;;;;;;;19.27;67.86;96784.38;5051582;28;20059;-77
2021/07/05 06:07:09;;;;;;;4.47;3.55;;;;;;;19.33;67.65;96774.44;5053821;28;20037;-77
2021/07/05 06:09:35;;;;;;;3.42;3.13;;;;;;;19.30;67.68;96780.34;5055190;28;20029;-78
2021/07/05 06:12:00;;;;;;;4.10;3.30;;;;;;;19.34;67.69;96776.00;5055382;28;20028;-77
2021/07/05 06:14:26;;;;;;;4.60;3.45;;;;;;;19.33;67.83;96771.78;5054922;28;20101;-77
2021/07/05 06:16:51;;;;;;;5.10;3.15;;;;;;;19.42;67.71;96773.34;5055058;28;20654;-77
2021/07/05 06:19:17;;;;;;;5.18;3.22;;;;;;;19.40;67.66;96774.75;5038359;28;20139;-77
2021/07/05 06:21:42;;;;;;;5.45;3.22;;;;;;;19.42;67.38;96777.84;5021743;28;20025;-77
2021/07/05 06:24:08;;;;;;;3.08;2.88;;;;;;;19.40;67.35;96777.41;5055197;28;20058;-77
2021/07/05 06:26:33;;;;;;;5.47;3.22;;;;;;;19.48;67.92;96779.25;5035940;28;20090;-77
2021/07/05 06:29:03;;;;;;;4.97;3.22;;;;;;;19.53;67.49;96779.09;5052903;28;20043;-77
2021/07/05 06:31:29;;;;;;;3.25;3.05;;;;;;;19.67;67.63;96775.50;5067896;28;20033;-77
2021/07/05 06:33:55;;;;;;;5.78;3.67;;;;;;;19.72;67.28;96764.78;5055207;28;20031;-77
2021/07/05 06:36:20;;;;;;;3.72;2.92;;;;;;;19.86;66.44;96775.97;5071463;28;20099;-77
2021/07/05 06:38:47;;;;;;;6.93;3.72;;;;;;;19.78;66.85;96776.78;5054789;28;20041;-77
2021/07/05 06:41:12;;;;;;;3.53;2.78;;;;;;;19.87;66.28;96772.22;5055391;28;20099;-77
2021/07/05 06:43:38;;;;;;;6.22;3.22;;;;;;;19.80;66.65;96778.00;5037966;28;20136;-77
2021/07/05 06:46:03;;;;;;;3.75;3.20;;;;;;;19.79;66.50;96781.75;5038010;28;20040;-77
2021/07/05 06:48:28;;;;;;;4.68;2.90;;;;;;;19.80;66.55;96777.22;5054137;28;20067;-77
2021/07/05 06:50:54;;;;;;;3.88;3.45;;;;;;;19.73;66.57;96782.94;5054274;28;20024;-77
2021/07/05 06:53:19;;;;;;;3.28;2.90;;;;;;;19.63;66.71;96773.47;5036608;28;20029;-77
2021/07/05 06:55:44;;;;;;;4.70;3.10;;;;;;;19.67;67.11;96773.63;5036389;28;20581;-77
2021/07/05 06:58:12;;;;;;;3.28;2.97;;;;;;;19.67;66.62;96772.84;5050834;28;20090;-77
2021/07/05 07:00:37;;;;;;;3.13;2.88;;;;;;;19.73;66.46;96776.91;5037546;28;20112;-77
2021/07/05 07:03:05;;;;;;;5.55;3.10;;;;;;;19.79;66.15;96780.94;5052133;28;20075;-77
2021/07/05 07:05:33;;;;;;;3.25;2.95;;;;;;;19.89;66.42;96785.91;5051591;28;20054;-77
2021/07/05 07:07:59;;;;;;;4.00;3.03;;;;;;;19.91;66.43;96777.66;5051759;28;20033;-77
2021/07/05 07:10:25;;;;;;;3.88;2.95;;;;;;;19.86;66.65;96785.75;5035669;28;20040;-77
2021/07/05 07:12:54;;;;;;;3.63;3.17;;;;;;;19.72;66.82;96768.19;5066500;28;20336;-77
2021/07/05 07:15:25;;;;;;;3.95;2.70;;;;;;;19.74;66.41;96768.69;5035931;28;20063;-77
2021/07/05 07:17:56;;;;;;;3.08;2.47;;;;;;;19.88;66.51;96771.16;5034474;28;20354;-77
2021/07/05 07:20:21;;;;;;;2.92;2.65;;;;;;;19.97;66.34;96774.53;5033956;28;20607;-77
2021/07/05 07:22:46;;;;;;;4.63;2.97;;;;;;;19.89;66.76;96769.28;5034363;28;20521;-77
2021/07/05 07:25:13;;;;;;;3.55;2.50;;;;;;;19.99;66.13;96779.50;5043972;28;20051;-77
2021/07/05 07:27:40;;;;;;;2.90;2.70;;;;;;;20.04;66.57;96786.50;5052195;28;20507;-77
2021/07/05 07:30:07;;;;;;;2.83;2.58;;;;;;;20.09;66.07;96788.97;5050359;28;20033;-76
2021/07/05 07:32:33;;;;;;;3.42;2.90;;;;;;;20.14;66.86;96776.34;5069467;28;20032;-77
2021/07/05 07:34:59;;;;;;;4.57;3.10;;;;;;;20.12;67.47;96777.78;5052978;28;20025;-77
2021/07/05 07:37:24;;;;;;;3.83;2.88;;;;;;;20.22;66.11;96780.09;5069492;28;20404;-77
2021/07/05 07:42:45;;;;;;;3.55;2.50;;;;;;;20.25;66.38;96766.22;5029095;28;20041;-77
2021/07/05 07:45:11;;;;;;;2.85;2.13;;;;;;;20.34;64.91;96774.91;5046429;28;20491;-77
2021/07/05 07:47:37;;;;;;;2.85;2.53;;;;;;;20.34;65.81;96769.59;5050493;28;20455;-77
2021/07/05 07:50:06;;;;;;;3.65;2.35;;;;;;;20.35;65.93;96771.16;5051847;28;20060;-77
2021/07/05 07:52:31;;;;;;;4.68;2.20;;;;;;;20.48;65.64;96763.34;5052023;28;20028;-77
2021/07/05 07:54:57;;;;;;;3.65;2.40;;;;;;;20.53;65.82;96763.91;5050101;28;20115;-77
2021/07/05 07:57:22;;;;;;;2.80;2.17;;;;;;;20.59;64.69;96762.63;5035048;28;20513;-77
2021/07/05 07:59:48;;;;;;;2.60;2.40;;;;;;;20.64;64.76;96761.72;5052488;28;20033;-77
2021/07/05 08:02:13;;;;;;;2.28;2.08;;;;;;;20.65;65.11;96757.97;5029801;28;20082;-76
2021/07/05 08:04:39;;;;;;;2.47;2.10;;;;;;;20.71;65.39;96761.97;5050248;28;20028;-76
2021/07/05 08:07:06;;;;;;;2.72;2.53;;;;;;;20.84;66.12;96762.09;5018415;28;20078;-77
2021/07/05 08:09:31;;;;;;;4.65;2.38;;;;;;;21.00;64.42;96752.47;5035276;28;20032;-77
2021/07/05 08:11:57;;;;;;;4.45;2.53;;;;;;;21.05;64.55;96748.84;5009306;28;20037;-77
2021/07/05 08:14:22;;;;;;;2.80;2.60;;;;;;;21.10;64.69;96738.84;5049599;28;20392;-77
2021/07/05 08:16:51;;;;;;;4.18;2.35;;;;;;;21.07;64.55;96742.13;5046739;28;20064;-77
2021/07/05 08:19:16;;;;;;;2.63;2.20;;;;;;;21.29;64.12;96745.56;5050742;28;20071;-77
2021/07/05 08:21:42;;;;;;;3.97;2.33;;;;;;;21.32;64.27;96739.59;5049791;28;20043;-77
2021/07/05 08:24:08;;;;;;;2.47;2.13;;;;;;;21.45;63.16;96738.53;5066616;28;20078;-77
2021/07/05 08:26:33;;;;;;;4.15;2.97;;;;;;;21.40;65.27;96738.75;5067081;28;20040;-77
2021/07/05 08:29:02;;;;;;;4.03;1.90;;;;;;;21.31;62.33;96748.66;5029477;28;20396;-77
2021/07/05 08:31:28;;;;;;;2.00;1.85;;;;;;;21.39;62.82;96747.03;5034055;28;20036;-77
2021/07/05 08:33:54;;;;;;;2.25;1.65;;;;;;;21.49;62.18;96741.38;5035190;28;20109;-77
2021/07/05 08:36:20;;;;;;;3.70;1.98;;;;;;;21.59;61.94;96745.47;5052079;28;20043;-76
2021/07/05 08:38:46;;;;;;;2.33;2.13;;;;;;;21.71;63.59;96748.13;5039037;28;20137;-77
2021/07/05 08:41:11;;;;;;;2.72;1.60;;;;;;;21.96;61.29;96741.03;5049724;28;20032;-77
2021/07/05 08:43:41;;;;;;;3.47;1.70;;;;;;;21.82;60.89;96737.91;5068075;28;20484;-77
2021/07/05 08:46:07;;;;;;;4.47;2.30;;;;;;;21.92;62.74;96737.50;5064639;28;20319;-76
2021/07/05 08:48:35;;;;;;;2.55;1.90;;;;;;;21.97;60.98;96739.16;5067480;28;20033;-77
2021/07/05 08:51:02;;;;;;;1.90;1.80;;;;;;;21.73;62.32;96740.66;5044359;28;20025;-77
2021/07/05 08:53:28;;;;;;;2.88;2.00;;;;;;;21.48;61.91;96745.09;5055649;28;20037;-77
2021/07/05 08:55:54;;;;;;;2.47;1.88;;;;;;;21.41;62.87;96742.19;5063785;28;20256;-77
2021/07/05 08:58:20;;;;;;;5.32;2.17;;;;;;;21.15;64.04;96735.22;5044820;28;20752;-76
2021/07/05 09:00:45;;;;;;;2.88;1.65;;;;;;;21.02;63.67;96734.38;5048816;28;20590;-77
2021/07/05 09:03:10;;;;;;;2.13;1.70;;;;;;;20.95;63.68;96726.19;5034256;28;20539;-77
2021/07/05 09:05:36;;;;;;;1.60;1.50;;;;;;;20.95;62.60;96726.19;5052962;28;20041;-77
2021/07/05 09:08:11;;;;;;;2.25;1.65;;;;;;;20.87;63.21;96724.38;5009808;28;20032;-77
2021/07/05 09:10:50;;;;;;;;;;;;;;;20.55;65.15;96726.56;5052679;28;20339;-77
2021/07/05 09:13:20;;;;;;;2.20;1.60;;;;;;;20.95;62.90;96728.81;5025181;28;19920;-77
2021/07/05 09:15:53;;;;;;;2.03;1.40;;;;;;;20.62;63.56;96723.44;5034507;28;20032;-77
2021/07/05 09:18:25;;;;;;;;;;;;;;;20.18;65.38;96726.28;5007711;28;20091;-77
2021/07/05 09:20:51;;;;;;;1.35;1.25;;;;;;;20.69;63.28;96724.47;5063503;28;19920;-77
2021/07/05 09:23:16;;;;;;;1.38;1.33;;;;;;;20.65;63.40;96725.44;5021547;28;20033;-77
2021/07/05 09:25:47;;;;;;;2.10;1.40;;;;;;;20.48;64.50;96727.06;5050336;28;20040;-76
2021/07/05 09:28:15;;;;;;;1.52;1.42;;;;;;;20.58;64.27;96715.38;5060392;28;20474;-77
2021/07/05 09:30:46;;;;;;;1.27;1.17;;;;;;;20.69;64.54;96716.56;5019527;28;20044;-76
2021/07/05 09:33:19;;;;;;;1.73;1.30;;;;;;;20.75;63.75;96717.13;5042813;28;20037;-77
2021/07/05 09:35:47;;;;;;;2.30;2.20;;;;;;;21.36;64.57;96719.31;5035321;28;20450;-77
2021/07/05 09:38:29;;;;;;;1.90;1.70;;;;;;;21.38;66.51;96722.41;5020288;28;20047;-77
2021/07/05 09:40:55;;;;;;;1.52;1.40;;;;;;;21.85;62.74;96724.78;5053214;28;20045;-77
2021/07/05 09:43:28;;;;;;;1.70;1.30;;;;;;;21.90;63.88;96721.16;5035784;28;20063;-77
2021/07/05 09:45:54;;;;;;;1.38;1.20;;;;;;;22.18;60.93;96715.22;5007854;28;20052;-77
2021/07/05 09:48:23;;;;;;;1.90;1.20;;;;;;;22.15;62.68;96715.88;5038903;28;20479;-77
2021/07/05 09:51:05;;;;;;;2.03;1.40;;;;;;;21.97;63.10;96712.63;5022819;28;20040;-77
2021/07/05 09:53:36;;;;;;;1.73;1.38;;;;;;;22.30;63.72;96711.81;5037509;28;20028;-77
2021/07/05 09:56:26;;;;;;;1.35;1.10;;;;;;;22.31;60.58;96713.34;5055082;28;20570;-76
2021/07/05 09:58:56;;;;;;;1.33;1.23;;;;;;;22.44;60.22;96713.00;5036997;28;20081;-77
2021/07/05 10:01:45;;;;;;;0.88;0.88;;;;;;;22.20;59.90;96711.13;5036682;28;20514;-77
2021/07/05 10:04:14;;;;;;;0.90;0.90;;;;;;;22.10;60.78;96716.84;5033678;28;20025;-77
2021/07/05 10:06:45;;;;;;;1.80;0.80;;;;;;;21.92;60.71;96716.28;5037907;28;20123;-77
2021/07/05 10:09:12;;;;;;;1.08;0.80;;;;;;;21.80;61.77;96719.69;5019038;28;20041;-77
2021/07/05 10:11:38;;;;;;;1.95;0.88;;;;;;;21.77;61.25;96715.03;5037907;28;20315;-77
2021/07/05 10:14:20;;;;;;;2.28;1.40;;;;;;;21.59;63.71;96713.66;5020518;28;20040;-77
2021/07/05 10:16:47;;;;;;;1.30;1.20;;;;;;;21.99;63.10;96710.44;5022971;28;20040;-77
2021/07/05 10:19:14;;;;;;;0.82;0.82;;;;;;;22.23;61.63;96710.47;5021565;28;20369;-77
2021/07/05 10:21:40;;;;;;;0.85;0.80;;;;;;;22.16;60.49;96714.78;5025241;28;20436;-77
2021/07/05 10:24:06;;;;;;;0.85;0.85;;;;;;;22.24;60.70;96704.06;5040290;28;20111;-77
2021/07/05 10:26:33;;;;;;;0.93;0.93;;;;;;;22.07;61.38;96709.56;5055983;28;20063;-76
2021/07/05 10:28:59;;;;;;;2.20;1.17;;;;;;;22.16;61.11;96715.53;5017561;28;20068;-77
2021/07/05 10:31:27;;;;;;;1.58;1.05;;;;;;;22.24;60.79;96706.72;5049239;28;20040;-76
2021/07/05 10:33:57;;;;;;;1.80;1.05;;;;;;;21.94;60.54;96710.66;5023571;28;20028;-77
2021/07/05 10:36:23;;;;;;;1.08;0.95;;;;;;;22.04;62.05;96711.00;5043560;28;20037;-77
2021/07/05 10:38:54;;;;;;;1.05;0.82;;;;;;;21.91;61.33;96703.38;5056428;28;20039;-77
2021/07/05 10:41:22;;;;;;;1.38;1.27;;;;;;;22.04;63.55;96715.53;5056212;28;20036;-77
2021/07/05 10:43:53;;;;;;;1.50;1.02;;;;;;;22.08;62.84;96716.41;5020052;28;20025;-77
2021/07/05 10:46:48;;;;;;;1.45;1.20;;;;;;;22.04;63.38;96713.66;5008232;28;20040;-77
2021/07/05 10:49:35;;;;;;;1.35;0.98;;;;;;;22.00;61.95;96718.06;5037380;28;20338;-77
2021/07/05 10:52:03;;;;;;;1.33;1.23;;;;;;;22.30;60.54;96709.94;5030776;28;20080;-77
2021/07/05 10:54:45;;;;;;;1.40;1.05;;;;;;;21.99;60.65;96719.16;5020324;28;20035;-77
2021/07/05 10:57:11;;;;;;;1.52;1.27;;;;;;;22.16;62.91;96717.44;5040698;28;20063;-77
2021/07/05 10:59:40;;;;;;;1.40;1.30;;;;;;;21.95;63.05;96710.34;5036601;28;20074;-77
2021/07/05 11:02:35;;;;;;;1.23;1.13;;;;;;;22.03;64.70;96706.03;5005101;28;20032;-77
2021/07/05 11:05:01;;;;;;;0.90;0.90;;;;;;;22.16;63.66;96704.94;5030618;28;20040;-77
2021/07/05 11:07:44;;;;;;;1.58;0.90;;;;;;;21.86;64.07;96691.09;5036038;28;20045;-77
2021/07/05 11:10:26;;;;;;;1.30;0.80;;;;;;;21.89;61.96;96691.19;5036686;28;20479;-77
2021/07/05 11:12:56;;;;;;;0.88;0.80;;;;;;;22.02;62.97;96699.16;5037418;28;20032;-77
2021/07/05 11:15:47;;;;;;;1.33;0.80;;;;;;;21.93;63.53;96696.63;5055656;28;20040;-77
2021/07/05 11:18:54;;;;;;;0.80;0.70;;;;;;;21.88;63.22;96694.97;5038406;28;20036;-77
2021/07/05 11:21:23;;;;;;;1.33;0.98;;;;;;;22.00;64.50;96696.88;5056175;28;20086;-77
2021/07/05 11:26:25;;;;;;;0.70;0.70;;;;;;;22.06;63.72;96689.47;5050533;28;20145;-77
2021/07/05 11:29:20;;;;;;;0.68;0.60;;;;;;;21.95;64.36;96697.09;5052500;28;20042;-77
2021/07/05 11:32:02;;;;;;;0.85;0.82;;;;;;;21.66;64.84;96700.66;5013927;28;20079;-77
2021/07/05 11:34:32;;;;;;;1.80;0.70;;;;;;;21.88;64.28;96692.31;5055926;28;20139;-77
2021/07/05 11:37:12;;;;;;;1.35;0.90;;;;;;;21.73;65.58;96685.00;5052815;28;20038;-77
2021/07/05 11:39:49;;;;;;;0.80;0.80;;;;;;;21.73;65.05;96689.53;5036322;28;20036;-77
2021/07/05 11:42:42;;;;;;;0.60;0.60;;;;;;;21.80;64.07;96684.47;5020594;28;20127;-77